Flight Track Log - Related Links

Times and Time Zones

All times are in EDT time to prevent confusion due to time zone crossing. See the UAL4274 flight status page for this flight to view local times or setup timezone preferences in your user account.

Time Position Orientation Groundspeed Altitude Reporting Facility
EDT Latitude Longitude Course Direction KTS MPH feet Rate Location/Type
Tue 06:33:58 AM 37.4833 -77.3000 208° Southwest 177 204 1,800  Level Potomac TRACON
Tue 06:34:52 AM 37.4333 -77.3333 208° Southwest 225 259 3,400 2,137 Climbing Potomac TRACON
Tue 06:35:11 AM 37.4178 -77.3517 223° Southwest 241 277 4,400 2,775 Climbing Washington Center
Tue 06:36:12 AM 37.4461 -77.4231 297° West 204 235 7,100 2,281 Climbing Washington Center
Tue 06:37:12 AM 37.5011 -77.4950 314° West 242 278 9,000 966 Climbing Washington Center
Tue 06:38:10 AM 37.5583 -77.5669 315° West 255 293 9,000 1,008 Level Washington Center
Tue 06:39:11 AM 37.6156 -77.6394 315° West 269 310 11,000 1,475 Climbing Washington Center
Tue 06:40:12 AM 37.6831 -77.7253 315° West 306 352 12,000 1,462 Climbing Washington Center
Tue 06:41:10 AM 37.7583 -77.8219 315° West 350 403 13,900 1,866 Climbing Washington Center
Tue 06:42:11 AM 37.8336 -77.9186 315° West 378 435 15,700 1,750 Climbing Washington Center
Tue 06:43:10 AM 37.9069 -78.0158 314° West 383 441 17,400 1,563 Climbing Washington Center
Tue 06:44:10 AM 37.9819 -78.1131 314° West 383 441 18,800 1,412 Climbing Washington Center
Tue 06:45:09 AM 38.0853 -78.1667 338° Northwest 391 450 20,200 1,450 Climbing Washington Center
Tue 06:46:10 AM 38.1956 -78.1703 359° North 376 433 21,700 1,438 Climbing Washington Center
Tue 06:47:10 AM 38.3081 -78.1742 358° North 383 441 23,100 1,438 Climbing Washington Center
Tue 06:48:11 AM 38.4142 -78.1833 356° North 390 449 24,600 1,488 Climbing Washington Center
Tue 06:49:11 AM 38.5247 -78.1872 358° North 390 449 26,100 1,190 Climbing Washington Center
Tue 06:50:12 AM 38.6372 -78.1964 356° North 385 443 27,000 454 Climbing Washington Center
Tue 06:51:10 AM 38.7600 -78.2033 357° North 407 468 27,000  Level Washington Center
Tue 06:52:11 AM 38.8889 -78.2133 357° North 433 498 27,000  Level Washington Center
Tue 06:53:12 AM 39.0200 -78.2258 356° North 461 531 27,000  Level Washington Center
Tue 06:54:09 AM 39.1511 -78.2361 357° North 467 537 27,000  Level Washington Center
Tue 06:55:10 AM 39.2822 -78.2514 355° North 472 543 27,000  Level Washington Center
Tue 06:56:48 AM 39.4997 -78.2722 356° North 489 563 27,000  Level Cleveland Center
Tue 06:57:48 AM 39.6311 -78.2867 355° North 478 550 27,000  Level Cleveland Center
Tue 06:58:48 AM 39.7611 -78.3119 351° North 478 550 27,000  Level Cleveland Center
Tue 06:59:48 AM 39.8483 -78.4008 322° Northwest 448 516 27,000  Level Cleveland Center
Tue 07:00:48 AM 39.9428 -78.5494 310° West 459 528 27,000  Level Cleveland Center
Tue 07:01:48 AM 40.0283 -78.6744 312° West 459 528 27,000  Level Cleveland Center
Tue 07:02:48 AM 40.1117 -78.7994 311° West 459 528 27,000  Level Cleveland Center
Tue 07:03:48 AM 40.1947 -78.9250 311° West 459 528 27,000  Level Cleveland Center
Tue 07:04:48 AM 40.2800 -79.0508 312° West 459 528 27,000  Level Cleveland Center
Tue 07:05:48 AM 40.3628 -79.1797 310° West 464 534 27,000  Level Cleveland Center
Tue 07:06:48 AM 40.4308 -79.2794 312° West 464 534 27,000  Level Cleveland Center
Tue 07:07:48 AM 40.5347 -79.4358 311° West 470 541 27,000  Level Cleveland Center
Tue 07:08:48 AM 40.6192 -79.5628 311° West 470 541 27,000  Level Cleveland Center
Tue 07:09:48 AM 40.7036 -79.6903 311° West 465 535 27,000  Level Cleveland Center
Tue 07:10:48 AM 40.7839 -79.8181 310° West 465 535 27,000  Level Cleveland Center
Tue 07:11:48 AM 40.8681 -79.9461 311° West 465 535 27,000 -400 Level Cleveland Center
Tue 07:12:48 AM 40.9500 -80.0717 311° West 465 535 26,200 -900 Descending Cleveland Center
Tue 07:13:48 AM 41.0339 -80.2006 311° West 465 535 25,200 -1,000 Descending Cleveland Center
Tue 07:14:48 AM 41.1133 -80.3267 310° West 465 535 24,200 -600 Descending Cleveland Center
Tue 07:15:48 AM 41.1928 -80.4561 309° West 460 529 24,000 -650 Descending Cleveland Center
Tue 07:16:48 AM 41.2617 -80.5667 310° West 454 522 22,900 -1,600 Descending Cleveland Center
Tue 07:17:48 AM 41.3344 -80.6883 309° West 438 504 20,800 -2,150 Descending Cleveland Center
Tue 07:18:48 AM 41.3822 -80.8128 297° West 396 456 18,600 -2,350 Descending Cleveland Center
Tue 07:19:48 AM 41.4278 -80.9319 297° West 371 427 16,100 -2,250 Descending Cleveland Center
Tue 07:20:48 AM 41.4711 -81.0458 297° West 355 409 14,100 -1,747 Descending Cleveland Center
Tue 07:21:07 AM 41.4878 -81.0958 294° West 344 396 13,800 -1,674 Descending Cleveland Center
Tue 07:21:31 AM 41.5064 -81.1433 298° West 343 395 12,900 -1,756 Descending Cleveland Center
Tue 07:21:48 AM 41.5103 -81.1600 287° West 345 397 12,600 -1,770 Descending Cleveland Center
Tue 07:22:32 AM 41.5014 -81.2597 263° West 309 356 11,100 -1,600 Descending Cleveland Center
Tue 07:22:48 AM 41.5014 -81.2761 270° West 312 359 11,000 -627 Descending Cleveland Center
Tue 07:23:39 AM 41.5278 -81.3681 291° West 286 329 10,400 -1,018 Descending Cleveland Center
Tue 07:24:40 AM 41.5878 -81.4325 321° Northwest 278 320 9,100 -1,587 Descending Cleveland Center
Tue 07:25:40 AM 41.6414 -81.5028 316° Northwest 268 308 7,200 -1,565 Descending Cleveland Center
Tue 07:26:35 AM 41.6014 -81.5606 227° Southwest 242 278 6,100 -1,034 Descending Cleveland Center
Tue 07:27:36 AM 41.5633 -81.6128 226° Southwest 181 208 5,200 -893 Descending Cleveland Center
Tue 07:28:36 AM 41.5317 -81.6622 229° Southwest 159 183 4,300 -818 Descending Cleveland Center
Tue 07:29:48 AM 41.4978 -81.7114 227° Southwest 165 190 3,400 -750 Descending Cleveland Center
Tue 07:30:44 AM 41.4767 -81.7528 236° Southwest 137 158 2,700 -724 Descending Cleveland Center
Tue 07:31:44 AM 41.4533 -81.7883 229° Southwest 130 150 2,000 -645 Descending Cleveland Center
Tue 07:32:45 AM 41.4322 -81.8211 229° Southwest 110 127 1,400 -590 Descending Cleveland Center
Tue 07:34:00 AM 41.4000 -81.8500 252° West  Level FlightAware Approximate
Tue 07:41:00 AM 41.4094 -81.8547 252° West  Level Estimated

Login

Don't have an account? Register now (free) for customized features, flight alerts, and more!